Terminal Aerodrome Forecast
Issued by NWS

Home | Current Version | Previous Version | Text Only | Print | Product List | Glossary On
Versions: 1 2 3 4 5 6 7 8 9 10 11 12
000
FTUS45 KVEF 011100
TAFVGT
TAF
KVGT 011122Z 0112/0212 21011KT P6SM SCT100
     FM011400 21012G20KT P6SM VCSH FEW030 BKN050
     FM011800 21017G27KT P6SM FEW050 SCT090
     FM020100 23012KT P6SM FEW070 SCT100
     FM020400 33008KT P6SM FEW070 SCT100=

USA.gov is the U.S. government's official web portal to all federal, state and local government web resources and services.